sensor_id;sensor_type;location;lat;lon;timestamp;P1;durP1;ratioP1;P2;durP2;ratioP2
70545;SDS011;58098;51.680;5.134;2024-01-30T00:01:32;12.77;;;8.93;;
70545;SDS011;58098;51.680;5.134;2024-01-30T00:03:57;14.10;;;9.07;;
70545;SDS011;58098;51.680;5.134;2024-01-30T00:06:23;17.43;;;10.87;;
70545;SDS011;58098;51.680;5.134;2024-01-30T00:08:48;17.00;;;10.90;;
70545;SDS011;58098;51.680;5.134;2024-01-30T00:11:14;19.67;;;10.60;;
70545;SDS011;58098;51.680;5.134;2024-01-30T00:13:39;14.00;;;9.37;;
70545;SDS011;58098;51.680;5.134;2024-01-30T00:16:05;15.30;;;10.37;;
70545;SDS011;58098;51.680;5.134;2024-01-30T00:18:30;15.37;;;9.60;;
70545;SDS011;58098;51.680;5.134;2024-01-30T00:20:55;15.77;;;9.97;;
70545;SDS011;58098;51.680;5.134;2024-01-30T00:23:20;18.73;;;10.77;;
70545;SDS011;58098;51.680;5.134;2024-01-30T00:25:46;19.47;;;10.60;;
70545;SDS011;58098;51.680;5.134;2024-01-30T00:28:11;15.93;;;10.27;;
70545;SDS011;58098;51.680;5.134;2024-01-30T00:30:36;17.93;;;10.60;;
70545;SDS011;58098;51.680;5.134;2024-01-30T00:33:01;18.10;;;10.00;;
70545;SDS011;58098;51.680;5.134;2024-01-30T00:35:26;17.10;;;9.90;;
70545;SDS011;58098;51.680;5.134;2024-01-30T00:37:52;16.33;;;10.47;;
70545;SDS011;58098;51.680;5.134;2024-01-30T00:40:17;16.33;;;10.43;;
70545;SDS011;58098;51.680;5.134;2024-01-30T00:42:43;16.95;;;10.80;;
70545;SDS011;58098;51.680;5.134;2024-01-30T00:45:11;18.60;;;10.50;;
70545;SDS011;58098;51.680;5.134;2024-01-30T00:47:37;16.85;;;10.68;;
70545;SDS011;58098;51.680;5.134;2024-01-30T00:50:02;18.53;;;10.97;;
70545;SDS011;58098;51.680;5.134;2024-01-30T00:52:27;21.13;;;11.90;;
70545;SDS011;58098;51.680;5.134;2024-01-30T00:54:52;15.53;;;10.27;;
70545;SDS011;58098;51.680;5.134;2024-01-30T00:57:17;19.30;;;11.30;;
70545;SDS011;58098;51.680;5.134;2024-01-30T00:59:42;17.97;;;11.20;;
70545;SDS011;58098;51.680;5.134;2024-01-30T01:02:08;17.70;;;11.17;;
70545;SDS011;58098;51.680;5.134;2024-01-30T01:04:33;21.47;;;10.60;;
70545;SDS011;58098;51.680;5.134;2024-01-30T01:06:58;18.20;;;10.90;;
70545;SDS011;58098;51.680;5.134;2024-01-30T01:09:23;20.27;;;11.63;;
70545;SDS011;58098;51.680;5.134;2024-01-30T01:11:49;17.17;;;11.17;;
70545;SDS011;58098;51.680;5.134;2024-01-30T01:14:14;15.57;;;10.07;;
70545;SDS011;58098;51.680;5.134;2024-01-30T01:16:39;18.83;;;11.87;;
70545;SDS011;58098;51.680;5.134;2024-01-30T01:19:04;16.73;;;9.97;;
70545;SDS011;58098;51.680;5.134;2024-01-30T01:21:29;15.30;;;9.60;;
70545;SDS011;58098;51.680;5.134;2024-01-30T01:23:55;18.60;;;11.27;;
70545;SDS011;58098;51.680;5.134;2024-01-30T01:26:20;20.07;;;11.83;;
70545;SDS011;58098;51.680;5.134;2024-01-30T01:28:46;19.60;;;12.30;;
70545;SDS011;58098;51.680;5.134;2024-01-30T01:31:11;17.10;;;11.07;;
70545;SDS011;58098;51.680;5.134;2024-01-30T01:33:36;14.57;;;9.37;;
70545;SDS011;58098;51.680;5.134;2024-01-30T01:36:02;13.95;;;9.80;;
70545;SDS011;58098;51.680;5.134;2024-01-30T01:38:28;17.37;;;11.00;;
70545;SDS011;58098;51.680;5.134;2024-01-30T01:40:53;18.20;;;11.03;;
70545;SDS011;58098;51.680;5.134;2024-01-30T01:43:18;18.77;;;11.47;;
70545;SDS011;58098;51.680;5.134;2024-01-30T01:45:44;17.47;;;11.77;;
70545;SDS011;58098;51.680;5.134;2024-01-30T01:48:09;16.73;;;10.25;;
70545;SDS011;58098;51.680;5.134;2024-01-30T01:50:35;18.15;;;10.38;;
70545;SDS011;58098;51.680;5.134;2024-01-30T01:53:01;15.20;;;10.77;;
70545;SDS011;58098;51.680;5.134;2024-01-30T01:55:26;18.90;;;10.77;;
70545;SDS011;58098;51.680;5.134;2024-01-30T01:57:53;15.27;;;10.07;;
70545;SDS011;58098;51.680;5.134;2024-01-30T02:00:19;17.43;;;10.90;;
70545;SDS011;58098;51.680;5.134;2024-01-30T02:02:45;17.13;;;10.15;;
70545;SDS011;58098;51.680;5.134;2024-01-30T02:05:10;18.10;;;10.85;;
70545;SDS011;58098;51.680;5.134;2024-01-30T02:07:36;17.63;;;11.27;;
70545;SDS011;58098;51.680;5.134;2024-01-30T02:10:01;15.40;;;9.83;;
70545;SDS011;58098;51.680;5.134;2024-01-30T02:12:26;18.83;;;10.33;;
70545;SDS011;58098;51.680;5.134;2024-01-30T02:14:51;17.90;;;11.47;;
70545;SDS011;58098;51.680;5.134;2024-01-30T02:17:18;17.83;;;11.25;;
70545;SDS011;58098;51.680;5.134;2024-01-30T02:19:43;17.40;;;10.23;;
70545;SDS011;58098;51.680;5.134;2024-01-30T02:22:08;16.93;;;11.27;;
70545;SDS011;58098;51.680;5.134;2024-01-30T02:24:34;17.13;;;11.23;;
70545;SDS011;58098;51.680;5.134;2024-01-30T02:26:59;17.87;;;10.90;;
70545;SDS011;58098;51.680;5.134;2024-01-30T02:29:24;19.33;;;11.50;;
70545;SDS011;58098;51.680;5.134;2024-01-30T02:31:50;17.37;;;10.87;;
70545;SDS011;58098;51.680;5.134;2024-01-30T02:34:15;18.53;;;10.60;;
70545;SDS011;58098;51.680;5.134;2024-01-30T02:36:43;20.20;;;11.97;;
70545;SDS011;58098;51.680;5.134;2024-01-30T02:39:09;15.93;;;10.70;;
70545;SDS011;58098;51.680;5.134;2024-01-30T02:41:34;18.50;;;11.50;;
70545;SDS011;58098;51.680;5.134;2024-01-30T02:44:00;15.57;;;10.30;;
70545;SDS011;58098;51.680;5.134;2024-01-30T02:46:25;17.30;;;10.87;;
70545;SDS011;58098;51.680;5.134;2024-01-30T02:48:50;17.63;;;10.97;;
70545;SDS011;58098;51.680;5.134;2024-01-30T02:51:16;14.70;;;10.13;;
70545;SDS011;58098;51.680;5.134;2024-01-30T02:53:41;18.23;;;11.15;;
70545;SDS011;58098;51.680;5.134;2024-01-30T02:56:06;17.47;;;10.50;;
70545;SDS011;58098;51.680;5.134;2024-01-30T02:58:34;17.90;;;10.32;;
70545;SDS011;58098;51.680;5.134;2024-01-30T03:00:59;19.30;;;10.73;;
70545;SDS011;58098;51.680;5.134;2024-01-30T03:03:25;20.43;;;10.70;;
70545;SDS011;58098;51.680;5.134;2024-01-30T03:05:50;16.37;;;11.23;;
70545;SDS011;58098;51.680;5.134;2024-01-30T03:08:15;16.20;;;11.13;;
70545;SDS011;58098;51.680;5.134;2024-01-30T03:10:40;22.73;;;11.97;;
70545;SDS011;58098;51.680;5.134;2024-01-30T03:13:05;19.77;;;11.23;;
70545;SDS011;58098;51.680;5.134;2024-01-30T03:15:31;15.73;;;10.23;;
70545;SDS011;58098;51.680;5.134;2024-01-30T03:17:56;18.17;;;10.47;;
70545;SDS011;58098;51.680;5.134;2024-01-30T03:20:21;18.27;;;10.20;;
70545;SDS011;58098;51.680;5.134;2024-01-30T03:22:46;16.13;;;9.60;;
70545;SDS011;58098;51.680;5.134;2024-01-30T03:25:11;18.60;;;10.17;;
70545;SDS011;58098;51.680;5.134;2024-01-30T03:27:37;21.03;;;10.77;;
70545;SDS011;58098;51.680;5.134;2024-01-30T03:30:02;17.70;;;10.33;;
70545;SDS011;58098;51.680;5.134;2024-01-30T03:32:28;17.25;;;10.43;;
70545;SDS011;58098;51.680;5.134;2024-01-30T03:34:53;17.20;;;9.10;;
70545;SDS011;58098;51.680;5.134;2024-01-30T03:37:18;17.47;;;10.13;;
70545;SDS011;58098;51.680;5.134;2024-01-30T03:39:43;14.73;;;10.07;;
70545;SDS011;58098;51.680;5.134;2024-01-30T03:42:09;16.93;;;9.63;;
70545;SDS011;58098;51.680;5.134;2024-01-30T03:44:34;14.17;;;9.30;;
70545;SDS011;58098;51.680;5.134;2024-01-30T03:46:59;14.70;;;9.53;;
70545;SDS011;58098;51.680;5.134;2024-01-30T03:49:24;20.67;;;10.20;;
70545;SDS011;58098;51.680;5.134;2024-01-30T03:51:49;15.87;;;9.87;;
70545;SDS011;58098;51.680;5.134;2024-01-30T03:54:15;13.67;;;9.40;;
70545;SDS011;58098;51.680;5.134;2024-01-30T03:56:40;15.57;;;9.93;;
70545;SDS011;58098;51.680;5.134;2024-01-30T03:59:05;14.43;;;9.10;;
70545;SDS011;58098;51.680;5.134;2024-01-30T04:01:30;16.77;;;9.07;;
70545;SDS011;58098;51.680;5.134;2024-01-30T04:03:56;15.10;;;9.23;;
70545;SDS011;58098;51.680;5.134;2024-01-30T04:06:21;16.67;;;9.97;;
70545;SDS011;58098;51.680;5.134;2024-01-30T04:08:46;15.83;;;10.07;;
70545;SDS011;58098;51.680;5.134;2024-01-30T04:11:11;15.00;;;10.00;;
70545;SDS011;58098;51.680;5.134;2024-01-30T04:13:36;15.03;;;9.90;;
70545;SDS011;58098;51.680;5.134;2024-01-30T04:16:02;14.43;;;9.57;;
70545;SDS011;58098;51.680;5.134;2024-01-30T04:18:27;13.45;;;8.65;;
70545;SDS011;58098;51.680;5.134;2024-01-30T04:20:53;18.13;;;9.80;;
70545;SDS011;58098;51.680;5.134;2024-01-30T04:23:18;13.50;;;9.13;;
70545;SDS011;58098;51.680;5.134;2024-01-30T04:25:43;17.33;;;10.23;;
70545;SDS011;58098;51.680;5.134;2024-01-30T04:28:09;14.77;;;10.37;;
70545;SDS011;58098;51.680;5.134;2024-01-30T04:30:34;17.50;;;9.32;;
70545;SDS011;58098;51.680;5.134;2024-01-30T04:32:59;15.83;;;9.13;;
70545;SDS011;58098;51.680;5.134;2024-01-30T04:35:25;17.30;;;9.63;;
70545;SDS011;58098;51.680;5.134;2024-01-30T04:37:52;13.50;;;8.77;;
70545;SDS011;58098;51.680;5.134;2024-01-30T04:40:17;15.40;;;8.73;;
70545;SDS011;58098;51.680;5.134;2024-01-30T04:42:42;13.40;;;9.30;;
70545;SDS011;58098;51.680;5.134;2024-01-30T04:45:07;15.00;;;9.43;;
70545;SDS011;58098;51.680;5.134;2024-01-30T04:47:33;16.10;;;9.60;;
70545;SDS011;58098;51.680;5.134;2024-01-30T04:49:58;18.93;;;9.77;;
70545;SDS011;58098;51.680;5.134;2024-01-30T04:52:23;16.80;;;9.13;;
70545;SDS011;58098;51.680;5.134;2024-01-30T04:54:48;15.27;;;8.83;;
70545;SDS011;58098;51.680;5.134;2024-01-30T04:57:13;15.43;;;9.47;;
70545;SDS011;58098;51.680;5.134;2024-01-30T04:59:39;11.70;;;8.00;;
70545;SDS011;58098;51.680;5.134;2024-01-30T05:02:04;13.00;;;8.60;;
70545;SDS011;58098;51.680;5.134;2024-01-30T05:04:29;12.90;;;8.93;;
70545;SDS011;58098;51.680;5.134;2024-01-30T05:06:54;16.90;;;9.13;;
70545;SDS011;58098;51.680;5.134;2024-01-30T05:09:19;15.00;;;8.80;;
70545;SDS011;58098;51.680;5.134;2024-01-30T05:11:45;13.83;;;9.20;;
70545;SDS011;58098;51.680;5.134;2024-01-30T05:14:10;14.27;;;8.37;;
70545;SDS011;58098;51.680;5.134;2024-01-30T05:16:36;14.43;;;8.95;;
70545;SDS011;58098;51.680;5.134;2024-01-30T05:19:02;14.57;;;8.33;;
70545;SDS011;58098;51.680;5.134;2024-01-30T05:21:27;13.20;;;8.60;;
70545;SDS011;58098;51.680;5.134;2024-01-30T05:23:52;13.93;;;8.87;;
70545;SDS011;58098;51.680;5.134;2024-01-30T05:26:17;12.63;;;8.97;;
70545;SDS011;58098;51.680;5.134;2024-01-30T05:28:43;17.40;;;9.13;;
70545;SDS011;58098;51.680;5.134;2024-01-30T05:31:11;15.20;;;9.13;;
70545;SDS011;58098;51.680;5.134;2024-01-30T05:33:36;11.60;;;8.43;;
70545;SDS011;58098;51.680;5.134;2024-01-30T05:36:01;15.93;;;9.13;;
70545;SDS011;58098;51.680;5.134;2024-01-30T05:38:27;15.47;;;8.87;;
70545;SDS011;58098;51.680;5.134;2024-01-30T05:40:52;14.13;;;8.73;;
70545;SDS011;58098;51.680;5.134;2024-01-30T05:43:17;12.53;;;8.30;;
70545;SDS011;58098;51.680;5.134;2024-01-30T05:45:42;14.15;;;9.00;;
70545;SDS011;58098;51.680;5.134;2024-01-30T05:48:08;13.75;;;8.35;;
70545;SDS011;58098;51.680;5.134;2024-01-30T05:50:33;13.37;;;8.90;;
70545;SDS011;58098;51.680;5.134;2024-01-30T05:52:58;16.17;;;8.43;;
70545;SDS011;58098;51.680;5.134;2024-01-30T05:55:23;15.73;;;8.47;;
70545;SDS011;58098;51.680;5.134;2024-01-30T05:57:48;15.97;;;9.17;;
70545;SDS011;58098;51.680;5.134;2024-01-30T06:00:14;14.63;;;9.40;;
70545;SDS011;58098;51.680;5.134;2024-01-30T06:02:39;23.93;;;10.57;;
70545;SDS011;58098;51.680;5.134;2024-01-30T06:05:04;15.43;;;8.90;;
70545;SDS011;58098;51.680;5.134;2024-01-30T06:07:29;14.07;;;8.17;;
70545;SDS011;58098;51.680;5.134;2024-01-30T06:09:55;12.13;;;8.33;;
70545;SDS011;58098;51.680;5.134;2024-01-30T06:12:20;13.33;;;8.37;;
70545;SDS011;58098;51.680;5.134;2024-01-30T06:14:45;15.57;;;8.73;;
70545;SDS011;58098;51.680;5.134;2024-01-30T06:17:10;16.53;;;8.67;;
70545;SDS011;58098;51.680;5.134;2024-01-30T06:19:37;15.90;;;8.90;;
70545;SDS011;58098;51.680;5.134;2024-01-30T06:22:05;12.57;;;8.90;;
70545;SDS011;58098;51.680;5.134;2024-01-30T06:24:30;12.57;;;8.40;;
70545;SDS011;58098;51.680;5.134;2024-01-30T06:26:56;16.60;;;8.97;;
70545;SDS011;58098;51.680;5.134;2024-01-30T06:29:21;13.80;;;9.03;;
70545;SDS011;58098;51.680;5.134;2024-01-30T06:31:46;15.03;;;8.30;;
70545;SDS011;58098;51.680;5.134;2024-01-30T06:34:11;12.70;;;8.07;;
70545;SDS011;58098;51.680;5.134;2024-01-30T06:36:37;13.20;;;8.80;;
70545;SDS011;58098;51.680;5.134;2024-01-30T06:39:02;14.97;;;8.13;;
70545;SDS011;58098;51.680;5.134;2024-01-30T06:41:28;14.35;;;8.82;;
70545;SDS011;58098;51.680;5.134;2024-01-30T06:43:53;11.30;;;7.60;;
70545;SDS011;58098;51.680;5.134;2024-01-30T06:46:18;16.17;;;8.40;;
70545;SDS011;58098;51.680;5.134;2024-01-30T06:48:43;12.53;;;8.50;;
70545;SDS011;58098;51.680;5.134;2024-01-30T06:51:10;13.43;;;8.75;;
70545;SDS011;58098;51.680;5.134;2024-01-30T06:53:35;13.03;;;8.27;;
70545;SDS011;58098;51.680;5.134;2024-01-30T06:56:00;13.87;;;9.00;;
70545;SDS011;58098;51.680;5.134;2024-01-30T06:58:25;14.47;;;7.77;;
70545;SDS011;58098;51.680;5.134;2024-01-30T07:00:51;18.17;;;8.30;;
70545;SDS011;58098;51.680;5.134;2024-01-30T07:03:16;17.77;;;8.50;;
70545;SDS011;58098;51.680;5.134;2024-01-30T07:05:41;17.37;;;7.57;;
70545;SDS011;58098;51.680;5.134;2024-01-30T07:08:06;18.80;;;8.40;;
70545;SDS011;58098;51.680;5.134;2024-01-30T07:10:32;15.13;;;8.23;;
70545;SDS011;58098;51.680;5.134;2024-01-30T07:12:57;12.50;;;7.67;;
70545;SDS011;58098;51.680;5.134;2024-01-30T07:15:22;14.87;;;8.10;;
70545;SDS011;58098;51.680;5.134;2024-01-30T07:17:48;11.87;;;7.63;;
70545;SDS011;58098;51.680;5.134;2024-01-30T07:20:13;19.15;;;8.20;;
70545;SDS011;58098;51.680;5.134;2024-01-30T07:22:39;15.17;;;8.20;;
70545;SDS011;58098;51.680;5.134;2024-01-30T07:25:05;14.33;;;8.13;;
70545;SDS011;58098;51.680;5.134;2024-01-30T07:27:30;14.25;;;7.57;;
70545;SDS011;58098;51.680;5.134;2024-01-30T07:29:56;14.83;;;8.83;;
70545;SDS011;58098;51.680;5.134;2024-01-30T07:32:21;14.93;;;8.43;;
70545;SDS011;58098;51.680;5.134;2024-01-30T07:34:46;13.53;;;8.70;;
70545;SDS011;58098;51.680;5.134;2024-01-30T07:37:11;15.63;;;8.13;;
70545;SDS011;58098;51.680;5.134;2024-01-30T07:39:40;13.45;;;7.93;;
70545;SDS011;58098;51.680;5.134;2024-01-30T07:42:05;15.23;;;8.63;;
70545;SDS011;58098;51.680;5.134;2024-01-30T07:44:30;16.03;;;9.37;;
70545;SDS011;58098;51.680;5.134;2024-01-30T07:46:56;15.50;;;9.33;;
70545;SDS011;58098;51.680;5.134;2024-01-30T07:49:22;16.42;;;8.73;;
70545;SDS011;58098;51.680;5.134;2024-01-30T07:51:47;17.63;;;9.23;;
70545;SDS011;58098;51.680;5.134;2024-01-30T07:54:12;14.23;;;7.93;;
70545;SDS011;58098;51.680;5.134;2024-01-30T07:56:38;16.60;;;9.10;;
70545;SDS011;58098;51.680;5.134;2024-01-30T07:59:03;17.10;;;8.50;;
70545;SDS011;58098;51.680;5.134;2024-01-30T08:01:29;16.13;;;8.20;;
70545;SDS011;58098;51.680;5.134;2024-01-30T08:03:54;12.63;;;7.68;;
70545;SDS011;58098;51.680;5.134;2024-01-30T08:06:19;14.73;;;8.37;;
70545;SDS011;58098;51.680;5.134;2024-01-30T08:08:44;16.03;;;8.20;;
70545;SDS011;58098;51.680;5.134;2024-01-30T08:11:10;16.73;;;9.00;;
70545;SDS011;58098;51.680;5.134;2024-01-30T08:13:35;14.20;;;9.30;;
70545;SDS011;58098;51.680;5.134;2024-01-30T08:16:00;13.60;;;9.33;;
70545;SDS011;58098;51.680;5.134;2024-01-30T08:18:25;16.50;;;9.00;;
70545;SDS011;58098;51.680;5.134;2024-01-30T08:20:51;18.63;;;9.87;;
70545;SDS011;58098;51.680;5.134;2024-01-30T08:23:16;19.97;;;10.07;;
70545;SDS011;58098;51.680;5.134;2024-01-30T08:25:41;16.27;;;8.87;;
70545;SDS011;58098;51.680;5.134;2024-01-30T08:28:07;15.53;;;8.97;;
70545;SDS011;58098;51.680;5.134;2024-01-30T08:30:32;16.20;;;8.43;;
70545;SDS011;58098;51.680;5.134;2024-01-30T08:32:57;15.33;;;8.47;;
70545;SDS011;58098;51.680;5.134;2024-01-30T08:35:22;18.43;;;8.10;;
70545;SDS011;58098;51.680;5.134;2024-01-30T08:37:48;20.33;;;8.90;;
70545;SDS011;58098;51.680;5.134;2024-01-30T08:40:13;14.40;;;8.30;;
70545;SDS011;58098;51.680;5.134;2024-01-30T08:42:38;16.97;;;8.53;;
70545;SDS011;58098;51.680;5.134;2024-01-30T08:45:04;13.67;;;8.60;;
70545;SDS011;58098;51.680;5.134;2024-01-30T08:47:30;18.87;;;8.97;;
70545;SDS011;58098;51.680;5.134;2024-01-30T08:49:55;15.57;;;8.20;;
70545;SDS011;58098;51.680;5.134;2024-01-30T08:52:20;17.00;;;8.43;;
70545;SDS011;58098;51.680;5.134;2024-01-30T08:54:45;15.17;;;8.70;;
70545;SDS011;58098;51.680;5.134;2024-01-30T08:57:10;18.30;;;8.30;;
70545;SDS011;58098;51.680;5.134;2024-01-30T08:59:36;16.70;;;8.63;;
70545;SDS011;58098;51.680;5.134;2024-01-30T09:02:01;16.43;;;8.70;;
70545;SDS011;58098;51.680;5.134;2024-01-30T09:04:26;13.83;;;8.53;;
70545;SDS011;58098;51.680;5.134;2024-01-30T09:06:51;17.90;;;8.87;;
70545;SDS011;58098;51.680;5.134;2024-01-30T09:09:16;17.70;;;8.47;;
70545;SDS011;58098;51.680;5.134;2024-01-30T09:11:42;13.20;;;7.93;;
70545;SDS011;58098;51.680;5.134;2024-01-30T09:14:08;14.50;;;8.70;;
70545;SDS011;58098;51.680;5.134;2024-01-30T09:16:33;15.50;;;8.33;;
70545;SDS011;58098;51.680;5.134;2024-01-30T09:18:59;18.63;;;8.37;;
70545;SDS011;58098;51.680;5.134;2024-01-30T09:21:24;17.53;;;8.93;;
70545;SDS011;58098;51.680;5.134;2024-01-30T09:23:49;17.83;;;9.00;;
70545;SDS011;58098;51.680;5.134;2024-01-30T09:26:14;20.07;;;8.90;;
70545;SDS011;58098;51.680;5.134;2024-01-30T09:28:40;17.87;;;9.13;;
70545;SDS011;58098;51.680;5.134;2024-01-30T09:31:10;16.58;;;8.25;;
70545;SDS011;58098;51.680;5.134;2024-01-30T09:33:36;17.70;;;8.85;;
70545;SDS011;58098;51.680;5.134;2024-01-30T09:36:01;18.20;;;9.00;;
70545;SDS011;58098;51.680;5.134;2024-01-30T09:38:26;13.57;;;8.53;;
70545;SDS011;58098;51.680;5.134;2024-01-30T09:40:53;19.30;;;9.83;;
70545;SDS011;58098;51.680;5.134;2024-01-30T09:43:19;19.13;;;8.55;;
70545;SDS011;58098;51.680;5.134;2024-01-30T09:45:47;16.42;;;9.05;;
70545;SDS011;58098;51.680;5.134;2024-01-30T09:48:13;15.67;;;9.03;;
70545;SDS011;58098;51.680;5.134;2024-01-30T09:50:38;17.53;;;8.90;;
70545;SDS011;58098;51.680;5.134;2024-01-30T09:53:03;13.88;;;8.05;;
70545;SDS011;58098;51.680;5.134;2024-01-30T09:55:29;18.10;;;8.70;;
70545;SDS011;58098;51.680;5.134;2024-01-30T09:57:54;15.63;;;8.80;;
70545;SDS011;58098;51.680;5.134;2024-01-30T10:00:19;18.63;;;8.97;;
70545;SDS011;58098;51.680;5.134;2024-01-30T10:02:45;18.10;;;9.27;;
70545;SDS011;58098;51.680;5.134;2024-01-30T10:05:10;16.47;;;9.30;;
70545;SDS011;58098;51.680;5.134;2024-01-30T10:07:36;15.82;;;8.93;;
70545;SDS011;58098;51.680;5.134;2024-01-30T10:10:01;16.07;;;8.70;;
70545;SDS011;58098;51.680;5.134;2024-01-30T10:12:28;20.40;;;9.80;;
70545;SDS011;58098;51.680;5.134;2024-01-30T10:14:53;20.63;;;9.98;;
70545;SDS011;58098;51.680;5.134;2024-01-30T10:17:21;16.90;;;9.60;;
70545;SDS011;58098;51.680;5.134;2024-01-30T10:19:46;16.03;;;9.70;;
70545;SDS011;58098;51.680;5.134;2024-01-30T10:22:11;17.67;;;9.40;;
70545;SDS011;58098;51.680;5.134;2024-01-30T10:24:37;17.63;;;9.43;;
70545;SDS011;58098;51.680;5.134;2024-01-30T10:27:02;15.87;;;8.90;;
70545;SDS011;58098;51.680;5.134;2024-01-30T10:29:28;18.07;;;9.27;;
70545;SDS011;58098;51.680;5.134;2024-01-30T10:32:00;16.60;;;9.05;;
70545;SDS011;58098;51.680;5.134;2024-01-30T10:34:25;15.20;;;8.18;;
70545;SDS011;58098;51.680;5.134;2024-01-30T10:36:51;16.50;;;9.27;;
70545;SDS011;58098;51.680;5.134;2024-01-30T10:39:20;18.17;;;8.65;;
70545;SDS011;58098;51.680;5.134;2024-01-30T10:41:46;17.93;;;8.93;;
70545;SDS011;58098;51.680;5.134;2024-01-30T10:44:13;16.00;;;8.00;;
70545;SDS011;58098;51.680;5.134;2024-01-30T10:46:41;16.50;;;8.52;;
70545;SDS011;58098;51.680;5.134;2024-01-30T10:49:07;13.48;;;8.82;;
70545;SDS011;58098;51.680;5.134;2024-01-30T10:51:34;16.50;;;8.13;;
70545;SDS011;58098;51.680;5.134;2024-01-30T10:54:00;15.93;;;8.45;;
70545;SDS011;58098;51.680;5.134;2024-01-30T10:56:25;22.07;;;9.80;;
70545;SDS011;58098;51.680;5.134;2024-01-30T10:58:52;14.00;;;8.60;;
70545;SDS011;58098;51.680;5.134;2024-01-30T11:01:20;18.70;;;9.93;;
70545;SDS011;58098;51.680;5.134;2024-01-30T11:03:48;12.30;;;7.85;;
70545;SDS011;58098;51.680;5.134;2024-01-30T11:06:13;14.40;;;8.37;;
70545;SDS011;58098;51.680;5.134;2024-01-30T11:08:43;13.15;;;8.98;;
70545;SDS011;58098;51.680;5.134;2024-01-30T11:11:09;15.17;;;7.87;;
70545;SDS011;58098;51.680;5.134;2024-01-30T11:13:34;10.73;;;6.88;;
70545;SDS011;58098;51.680;5.134;2024-01-30T11:16:03;11.90;;;6.80;;
70545;SDS011;58098;51.680;5.134;2024-01-30T11:18:29;13.48;;;6.68;;
70545;SDS011;58098;51.680;5.134;2024-01-30T11:20:58;9.40;;;5.20;;
70545;SDS011;58098;51.680;5.134;2024-01-30T11:23:25;13.02;;;5.70;;
70545;SDS011;58098;51.680;5.134;2024-01-30T11:25:52;11.25;;;5.50;;
70545;SDS011;58098;51.680;5.134;2024-01-30T11:28:17;12.00;;;5.30;;
70545;SDS011;58098;51.680;5.134;2024-01-30T11:30:43;8.43;;;5.30;;
70545;SDS011;58098;51.680;5.134;2024-01-30T11:33:12;7.78;;;4.28;;
70545;SDS011;58098;51.680;5.134;2024-01-30T11:35:38;9.23;;;3.73;;
70545;SDS011;58098;51.680;5.134;2024-01-30T11:38:04;6.95;;;3.45;;
70545;SDS011;58098;51.680;5.134;2024-01-30T11:40:30;8.15;;;3.45;;
70545;SDS011;58098;51.680;5.134;2024-01-30T11:42:56;7.83;;;3.23;;
70545;SDS011;58098;51.680;5.134;2024-01-30T11:45:23;4.90;;;2.95;;
70545;SDS011;58098;51.680;5.134;2024-01-30T11:47:48;7.57;;;3.33;;
70545;SDS011;58098;51.680;5.134;2024-01-30T11:50:13;5.23;;;2.80;;
70545;SDS011;58098;51.680;5.134;2024-01-30T11:52:38;6.55;;;2.65;;
70545;SDS011;58098;51.680;5.134;2024-01-30T11:55:04;5.80;;;2.65;;
70545;SDS011;58098;51.680;5.134;2024-01-30T11:57:29;7.70;;;2.70;;
70545;SDS011;58098;51.680;5.134;2024-01-30T11:59:54;8.47;;;2.80;;
70545;SDS011;58098;51.680;5.134;2024-01-30T12:02:19;3.50;;;2.30;;
70545;SDS011;58098;51.680;5.134;2024-01-30T12:04:45;5.20;;;2.37;;
70545;SDS011;58098;51.680;5.134;2024-01-30T12:07:10;7.57;;;2.93;;
70545;SDS011;58098;51.680;5.134;2024-01-30T12:09:36;11.97;;;2.33;;
70545;SDS011;58098;51.680;5.134;2024-01-30T12:12:01;4.60;;;2.55;;
70545;SDS011;58098;51.680;5.134;2024-01-30T12:14:26;8.63;;;2.60;;
70545;SDS011;58098;51.680;5.134;2024-01-30T12:16:51;4.40;;;2.30;;
70545;SDS011;58098;51.680;5.134;2024-01-30T12:19:25;3.67;;;2.53;;
70545;SDS011;58098;51.680;5.134;2024-01-30T12:21:54;5.50;;;2.45;;
70545;SDS011;58098;51.680;5.134;2024-01-30T12:24:20;13.93;;;3.80;;
70545;SDS011;58098;51.680;5.134;2024-01-30T12:26:45;4.77;;;1.97;;
70545;SDS011;58098;51.680;5.134;2024-01-30T12:29:10;4.43;;;2.00;;
70545;SDS011;58098;51.680;5.134;2024-01-30T12:31:36;3.63;;;1.50;;
70545;SDS011;58098;51.680;5.134;2024-01-30T12:34:01;4.47;;;2.00;;
70545;SDS011;58098;51.680;5.134;2024-01-30T12:36:26;2.43;;;1.60;;
70545;SDS011;58098;51.680;5.134;2024-01-30T12:38:53;3.10;;;1.90;;
70545;SDS011;58098;51.680;5.134;2024-01-30T12:41:19;2.90;;;1.80;;
70545;SDS011;58098;51.680;5.134;2024-01-30T12:43:45;3.05;;;1.90;;
70545;SDS011;58098;51.680;5.134;2024-01-30T12:46:10;3.23;;;1.73;;
70545;SDS011;58098;51.680;5.134;2024-01-30T12:48:35;2.77;;;1.90;;
70545;SDS011;58098;51.680;5.134;2024-01-30T12:51:00;3.00;;;1.53;;
70545;SDS011;58098;51.680;5.134;2024-01-30T12:53:26;4.00;;;1.87;;
70545;SDS011;58098;51.680;5.134;2024-01-30T12:55:51;3.47;;;1.90;;
70545;SDS011;58098;51.680;5.134;2024-01-30T12:58:16;2.83;;;1.53;;
70545;SDS011;58098;51.680;5.134;2024-01-30T13:00:42;21.00;;;5.30;;
70545;SDS011;58098;51.680;5.134;2024-01-30T13:03:08;8.05;;;2.65;;
70545;SDS011;58098;51.680;5.134;2024-01-30T13:05:33;3.00;;;1.77;;
70545;SDS011;58098;51.680;5.134;2024-01-30T13:07:58;5.00;;;2.00;;
70545;SDS011;58098;51.680;5.134;2024-01-30T13:10:24;3.80;;;1.90;;
70545;SDS011;58098;51.680;5.134;2024-01-30T13:12:49;3.30;;;2.30;;
70545;SDS011;58098;51.680;5.134;2024-01-30T13:15:14;5.40;;;2.90;;
70545;SDS011;58098;51.680;5.134;2024-01-30T13:17:40;10.20;;;3.17;;
70545;SDS011;58098;51.680;5.134;2024-01-30T13:20:05;6.93;;;3.92;;
70545;SDS011;58098;51.680;5.134;2024-01-30T13:22:33;14.57;;;3.83;;
70545;SDS011;58098;51.680;5.134;2024-01-30T13:24:58;10.53;;;4.17;;
70545;SDS011;58098;51.680;5.134;2024-01-30T13:27:23;8.27;;;3.60;;
70545;SDS011;58098;51.680;5.134;2024-01-30T13:29:48;9.00;;;3.60;;
70545;SDS011;58098;51.680;5.134;2024-01-30T13:32:14;11.17;;;3.73;;
70545;SDS011;58098;51.680;5.134;2024-01-30T13:34:39;9.70;;;3.60;;
70545;SDS011;58098;51.680;5.134;2024-01-30T13:37:05;11.35;;;4.18;;
70545;SDS011;58098;51.680;5.134;2024-01-30T13:39:30;7.57;;;3.90;;
70545;SDS011;58098;51.680;5.134;2024-01-30T13:41:55;15.40;;;4.47;;
70545;SDS011;58098;51.680;5.134;2024-01-30T13:44:20;13.30;;;4.10;;
70545;SDS011;58098;51.680;5.134;2024-01-30T13:46:46;9.57;;;4.40;;
70545;SDS011;58098;51.680;5.134;2024-01-30T13:49:11;9.47;;;4.27;;
70545;SDS011;58098;51.680;5.134;2024-01-30T13:51:36;11.47;;;4.67;;
70545;SDS011;58098;51.680;5.134;2024-01-30T13:54:01;14.60;;;5.37;;
70545;SDS011;58098;51.680;5.134;2024-01-30T13:56:27;10.63;;;4.67;;
70545;SDS011;58098;51.680;5.134;2024-01-30T13:58:52;10.67;;;4.80;;
70545;SDS011;58098;51.680;5.134;2024-01-30T14:01:17;13.73;;;4.28;;
70545;SDS011;58098;51.680;5.134;2024-01-30T14:03:43;12.80;;;4.27;;
70545;SDS011;58098;51.680;5.134;2024-01-30T14:06:08;11.37;;;4.47;;
70545;SDS011;58098;51.680;5.134;2024-01-30T14:08:33;13.33;;;3.90;;
70545;SDS011;58098;51.680;5.134;2024-01-30T14:10:58;13.53;;;4.33;;
70545;SDS011;58098;51.680;5.134;2024-01-30T14:13:23;6.73;;;4.07;;
70545;SDS011;58098;51.680;5.134;2024-01-30T14:15:50;13.18;;;6.32;;
70545;SDS011;58098;51.680;5.134;2024-01-30T14:18:15;8.33;;;4.23;;
70545;SDS011;58098;51.680;5.134;2024-01-30T14:20:40;8.03;;;4.50;;
70545;SDS011;58098;51.680;5.134;2024-01-30T14:23:06;9.97;;;3.47;;